sensor_id;sensor_type;location;lat;lon;timestamp;temperature;humidity
7512;DHT22;9999;48.780;9.146;2023-04-03T00:01:34;3.90;99.90
7512;DHT22;9999;48.780;9.146;2023-04-03T00:04:03;3.90;99.90
7512;DHT22;9999;48.780;9.146;2023-04-03T00:06:30;3.90;99.90
7512;DHT22;9999;48.780;9.146;2023-04-03T00:08:57;3.80;99.90
7512;DHT22;9999;48.780;9.146;2023-04-03T00:11:25;3.80;99.90
7512;DHT22;9999;48.780;9.146;2023-04-03T00:13:52;3.80;99.90
7512;DHT22;9999;48.780;9.146;2023-04-03T00:16:19;3.80;99.90
7512;DHT22;9999;48.780;9.146;2023-04-03T00:18:45;3.80;99.90
7512;DHT22;9999;48.780;9.146;2023-04-03T00:21:13;3.80;99.90
7512;DHT22;9999;48.780;9.146;2023-04-03T00:23:41;3.80;99.90
7512;DHT22;9999;48.780;9.146;2023-04-03T00:26:07;3.80;99.90
7512;DHT22;9999;48.780;9.146;2023-04-03T00:28:36;3.80;99.90
7512;DHT22;9999;48.780;9.146;2023-04-03T00:31:03;3.70;99.90
7512;DHT22;9999;48.780;9.146;2023-04-03T00:33:30;3.80;99.90
7512;DHT22;9999;48.780;9.146;2023-04-03T00:35:57;3.80;99.90
7512;DHT22;9999;48.780;9.146;2023-04-03T00:38:24;3.80;99.90
7512;DHT22;9999;48.780;9.146;2023-04-03T00:40:51;3.90;99.90
7512;DHT22;9999;48.780;9.146;2023-04-03T00:43:21;3.80;99.90
7512;DHT22;9999;48.780;9.146;2023-04-03T00:45:50;3.80;99.90
7512;DHT22;9999;48.780;9.146;2023-04-03T00:48:20;3.80;99.90
7512;DHT22;9999;48.780;9.146;2023-04-03T00:50:49;3.90;99.90
7512;DHT22;9999;48.780;9.146;2023-04-03T00:53:19;3.80;99.90
7512;DHT22;9999;48.780;9.146;2023-04-03T00:55:49;3.80;99.90
7512;DHT22;9999;48.780;9.146;2023-04-03T00:58:18;3.90;99.90
7512;DHT22;9999;48.780;9.146;2023-04-03T01:00:53;3.80;99.90
7512;DHT22;9999;48.780;9.146;2023-04-03T01:03:23;3.90;99.90
7512;DHT22;9999;48.780;9.146;2023-04-03T01:05:51;3.80;99.90
7512;DHT22;9999;48.780;9.146;2023-04-03T01:08:17;3.80;99.90
7512;DHT22;9999;48.780;9.146;2023-04-03T01:10:44;3.70;99.90
7512;DHT22;9999;48.780;9.146;2023-04-03T01:13:20;3.80;99.90
7512;DHT22;9999;48.780;9.146;2023-04-03T01:15:47;3.80;99.90
7512;DHT22;9999;48.780;9.146;2023-04-03T01:18:15;3.80;99.90
7512;DHT22;9999;48.780;9.146;2023-04-03T01:21:07;3.80;99.90
7512;DHT22;9999;48.780;9.146;2023-04-03T01:23:45;3.70;99.90
7512;DHT22;9999;48.780;9.146;2023-04-03T01:26:16;3.70;99.90
7512;DHT22;9999;48.780;9.146;2023-04-03T01:28:43;3.70;99.90
7512;DHT22;9999;48.780;9.146;2023-04-03T01:31:18;3.70;99.90
7512;DHT22;9999;48.780;9.146;2023-04-03T01:33:49;3.70;99.90
7512;DHT22;9999;48.780;9.146;2023-04-03T01:36:19;3.70;99.90
7512;DHT22;9999;48.780;9.146;2023-04-03T01:38:46;3.70;99.90
7512;DHT22;9999;48.780;9.146;2023-04-03T01:41:13;3.70;99.90
7512;DHT22;9999;48.780;9.146;2023-04-03T01:43:41;3.70;99.90
7512;DHT22;9999;48.780;9.146;2023-04-03T01:46:08;3.60;99.90
7512;DHT22;9999;48.780;9.146;2023-04-03T01:48:35;3.70;99.90
7512;DHT22;9999;48.780;9.146;2023-04-03T01:51:04;3.60;99.90
7512;DHT22;9999;48.780;9.146;2023-04-03T01:53:31;3.70;99.90
7512;DHT22;9999;48.780;9.146;2023-04-03T01:55:57;3.60;99.90
7512;DHT22;9999;48.780;9.146;2023-04-03T01:58:24;3.70;99.90
7512;DHT22;9999;48.780;9.146;2023-04-03T02:00:52;3.70;99.90
7512;DHT22;9999;48.780;9.146;2023-04-03T02:03:20;3.70;99.90
7512;DHT22;9999;48.780;9.146;2023-04-03T02:05:47;3.60;99.90
7512;DHT22;9999;48.780;9.146;2023-04-03T02:08:15;3.70;99.90
7512;DHT22;9999;48.780;9.146;2023-04-03T02:10:43;3.70;99.90
7512;DHT22;9999;48.780;9.146;2023-04-03T02:13:10;3.70;99.90
7512;DHT22;9999;48.780;9.146;2023-04-03T02:15:37;3.80;99.90
7512;DHT22;9999;48.780;9.146;2023-04-03T02:18:04;3.70;99.90
7512;DHT22;9999;48.780;9.146;2023-04-03T02:20:31;3.70;99.90
7512;DHT22;9999;48.780;9.146;2023-04-03T02:22:58;3.70;99.90
7512;DHT22;9999;48.780;9.146;2023-04-03T02:25:26;3.70;99.90
7512;DHT22;9999;48.780;9.146;2023-04-03T02:27:53;3.70;99.90
7512;DHT22;9999;48.780;9.146;2023-04-03T02:30:20;3.70;99.90
7512;DHT22;9999;48.780;9.146;2023-04-03T02:32:47;3.60;99.90
7512;DHT22;9999;48.780;9.146;2023-04-03T02:35:13;3.60;99.90
7512;DHT22;9999;48.780;9.146;2023-04-03T02:37:41;3.50;99.90
7512;DHT22;9999;48.780;9.146;2023-04-03T02:40:08;3.50;99.90
7512;DHT22;9999;48.780;9.146;2023-04-03T02:42:38;3.40;99.90
7512;DHT22;9999;48.780;9.146;2023-04-03T02:45:06;3.40;99.90
7512;DHT22;9999;48.780;9.146;2023-04-03T02:47:33;3.40;99.90
7512;DHT22;9999;48.780;9.146;2023-04-03T02:50:00;3.40;99.90
7512;DHT22;9999;48.780;9.146;2023-04-03T02:52:26;3.40;99.90
7512;DHT22;9999;48.780;9.146;2023-04-03T02:54:56;3.50;99.90
7512;DHT22;9999;48.780;9.146;2023-04-03T02:57:23;3.40;99.90
7512;DHT22;9999;48.780;9.146;2023-04-03T02:59:51;3.40;99.90
7512;DHT22;9999;48.780;9.146;2023-04-03T03:02:18;3.40;99.90
7512;DHT22;9999;48.780;9.146;2023-04-03T03:04:45;3.40;99.90
7512;DHT22;9999;48.780;9.146;2023-04-03T03:07:11;3.40;99.90
7512;DHT22;9999;48.780;9.146;2023-04-03T03:09:38;3.40;99.90
7512;DHT22;9999;48.780;9.146;2023-04-03T03:12:05;3.50;99.90
7512;DHT22;9999;48.780;9.146;2023-04-03T03:14:32;3.50;99.90
7512;DHT22;9999;48.780;9.146;2023-04-03T03:17:00;3.50;99.90
7512;DHT22;9999;48.780;9.146;2023-04-03T03:19:27;3.50;99.90
7512;DHT22;9999;48.780;9.146;2023-04-03T03:21:54;3.60;99.90
7512;DHT22;9999;48.780;9.146;2023-04-03T03:24:22;3.50;99.90
7512;DHT22;9999;48.780;9.146;2023-04-03T03:26:49;3.50;99.90
7512;DHT22;9999;48.780;9.146;2023-04-03T03:29:16;3.50;99.90
7512;DHT22;9999;48.780;9.146;2023-04-03T03:31:43;3.50;99.90
7512;DHT22;9999;48.780;9.146;2023-04-03T03:34:12;3.50;99.90
7512;DHT22;9999;48.780;9.146;2023-04-03T03:36:39;3.50;99.90
7512;DHT22;9999;48.780;9.146;2023-04-03T03:39:06;3.60;99.90
7512;DHT22;9999;48.780;9.146;2023-04-03T03:41:33;3.50;99.90
7512;DHT22;9999;48.780;9.146;2023-04-03T03:44:00;3.50;99.90
7512;DHT22;9999;48.780;9.146;2023-04-03T03:46:30;3.40;99.90
7512;DHT22;9999;48.780;9.146;2023-04-03T03:48:57;3.40;99.90
7512;DHT22;9999;48.780;9.146;2023-04-03T03:51:26;3.30;99.90
7512;DHT22;9999;48.780;9.146;2023-04-03T03:53:53;3.30;99.90
7512;DHT22;9999;48.780;9.146;2023-04-03T03:56:20;3.30;99.90
7512;DHT22;9999;48.780;9.146;2023-04-03T03:58:48;3.30;99.90
7512;DHT22;9999;48.780;9.146;2023-04-03T04:01:16;3.40;99.90
7512;DHT22;9999;48.780;9.146;2023-04-03T04:03:46;3.30;99.90
7512;DHT22;9999;48.780;9.146;2023-04-03T04:06:18;3.40;99.90
7512;DHT22;9999;48.780;9.146;2023-04-03T04:08:46;3.40;99.90
7512;DHT22;9999;48.780;9.146;2023-04-03T04:11:14;3.40;99.90
7512;DHT22;9999;48.780;9.146;2023-04-03T04:13:42;3.30;99.90
7512;DHT22;9999;48.780;9.146;2023-04-03T04:16:11;3.30;99.90
7512;DHT22;9999;48.780;9.146;2023-04-03T04:18:38;3.40;99.90
7512;DHT22;9999;48.780;9.146;2023-04-03T04:21:05;3.30;99.90
7512;DHT22;9999;48.780;9.146;2023-04-03T04:23:32;3.30;99.90
7512;DHT22;9999;48.780;9.146;2023-04-03T04:26:01;3.30;99.90
7512;DHT22;9999;48.780;9.146;2023-04-03T04:28:32;3.30;99.90
7512;DHT22;9999;48.780;9.146;2023-04-03T04:31:01;3.30;99.90
7512;DHT22;9999;48.780;9.146;2023-04-03T04:33:28;3.40;99.90
7512;DHT22;9999;48.780;9.146;2023-04-03T04:35:58;3.40;99.90
7512;DHT22;9999;48.780;9.146;2023-04-03T04:38:24;3.30;99.90
7512;DHT22;9999;48.780;9.146;2023-04-03T04:40:53;3.30;99.90
7512;DHT22;9999;48.780;9.146;2023-04-03T04:43:21;3.40;99.90
7512;DHT22;9999;48.780;9.146;2023-04-03T04:46:00;3.40;99.90
7512;DHT22;9999;48.780;9.146;2023-04-03T04:48:27;3.40;99.90
7512;DHT22;9999;48.780;9.146;2023-04-03T04:50:54;3.40;99.90
7512;DHT22;9999;48.780;9.146;2023-04-03T04:53:21;3.40;99.90
7512;DHT22;9999;48.780;9.146;2023-04-03T04:55:48;3.40;99.90
7512;DHT22;9999;48.780;9.146;2023-04-03T04:58:15;3.40;99.90
7512;DHT22;9999;48.780;9.146;2023-04-03T05:00:43;3.40;99.90
7512;DHT22;9999;48.780;9.146;2023-04-03T05:03:10;3.40;99.90
7512;DHT22;9999;48.780;9.146;2023-04-03T05:05:37;3.40;99.90
7512;DHT22;9999;48.780;9.146;2023-04-03T05:08:05;3.40;99.90
7512;DHT22;9999;48.780;9.146;2023-04-03T05:10:34;3.40;99.90
7512;DHT22;9999;48.780;9.146;2023-04-03T05:13:01;3.40;99.90
7512;DHT22;9999;48.780;9.146;2023-04-03T05:15:28;3.40;99.90
7512;DHT22;9999;48.780;9.146;2023-04-03T05:17:56;3.30;99.90
7512;DHT22;9999;48.780;9.146;2023-04-03T05:20:23;3.40;99.90
7512;DHT22;9999;48.780;9.146;2023-04-03T05:22:51;3.40;99.90
7512;DHT22;9999;48.780;9.146;2023-04-03T05:25:18;3.40;99.90
7512;DHT22;9999;48.780;9.146;2023-04-03T05:27:45;3.40;99.90
7512;DHT22;9999;48.780;9.146;2023-04-03T05:30:12;3.40;99.90
7512;DHT22;9999;48.780;9.146;2023-04-03T05:32:40;3.40;99.90
7512;DHT22;9999;48.780;9.146;2023-04-03T05:35:19;3.30;99.90
7512;DHT22;9999;48.780;9.146;2023-04-03T05:37:50;3.40;99.90
7512;DHT22;9999;48.780;9.146;2023-04-03T05:40:17;3.40;99.90
7512;DHT22;9999;48.780;9.146;2023-04-03T05:42:47;3.40;99.90
7512;DHT22;9999;48.780;9.146;2023-04-03T05:45:15;3.40;99.90
7512;DHT22;9999;48.780;9.146;2023-04-03T05:47:42;3.40;99.90
7512;DHT22;9999;48.780;9.146;2023-04-03T05:50:09;3.40;99.90
7512;DHT22;9999;48.780;9.146;2023-04-03T05:52:40;3.40;99.90
7512;DHT22;9999;48.780;9.146;2023-04-03T05:55:09;3.40;99.90
7512;DHT22;9999;48.780;9.146;2023-04-03T05:57:36;3.40;99.90
7512;DHT22;9999;48.780;9.146;2023-04-03T06:00:05;3.40;99.90
7512;DHT22;9999;48.780;9.146;2023-04-03T06:02:39;3.40;99.90
7512;DHT22;9999;48.780;9.146;2023-04-03T06:05:10;3.50;99.90
7512;DHT22;9999;48.780;9.146;2023-04-03T06:07:40;3.50;99.90
7512;DHT22;9999;48.780;9.146;2023-04-03T06:10:07;3.50;99.90
7512;DHT22;9999;48.780;9.146;2023-04-03T06:12:35;3.50;99.90
7512;DHT22;9999;48.780;9.146;2023-04-03T06:15:02;3.50;99.90
7512;DHT22;9999;48.780;9.146;2023-04-03T06:17:29;3.60;99.90
7512;DHT22;9999;48.780;9.146;2023-04-03T06:19:58;3.60;99.90
7512;DHT22;9999;48.780;9.146;2023-04-03T06:22:25;3.70;99.90
7512;DHT22;9999;48.780;9.146;2023-04-03T06:24:56;3.70;99.90
7512;DHT22;9999;48.780;9.146;2023-04-03T06:27:23;3.70;99.90
7512;DHT22;9999;48.780;9.146;2023-04-03T06:29:50;3.80;99.90
7512;DHT22;9999;48.780;9.146;2023-04-03T06:32:17;3.70;99.90
7512;DHT22;9999;48.780;9.146;2023-04-03T06:34:44;3.70;99.90
7512;DHT22;9999;48.780;9.146;2023-04-03T06:37:12;3.70;99.90
7512;DHT22;9999;48.780;9.146;2023-04-03T06:39:41;3.70;99.90
7512;DHT22;9999;48.780;9.146;2023-04-03T06:42:09;3.70;99.90
7512;DHT22;9999;48.780;9.146;2023-04-03T06:44:44;3.70;99.90
7512;DHT22;9999;48.780;9.146;2023-04-03T06:47:11;3.80;99.90
7512;DHT22;9999;48.780;9.146;2023-04-03T06:49:39;3.80;99.90
7512;DHT22;9999;48.780;9.146;2023-04-03T06:52:07;3.80;99.90
7512;DHT22;9999;48.780;9.146;2023-04-03T06:54:33;3.90;99.90
7512;DHT22;9999;48.780;9.146;2023-04-03T06:57:01;3.90;99.90
7512;DHT22;9999;48.780;9.146;2023-04-03T06:59:29;3.80;99.90
7512;DHT22;9999;48.780;9.146;2023-04-03T07:01:56;3.80;99.90
7512;DHT22;9999;48.780;9.146;2023-04-03T07:04:24;3.80;99.90
7512;DHT22;9999;48.780;9.146;2023-04-03T07:06:51;3.80;99.90
7512;DHT22;9999;48.780;9.146;2023-04-03T07:09:17;3.80;99.90
7512;DHT22;9999;48.780;9.146;2023-04-03T07:11:44;3.90;99.90
7512;DHT22;9999;48.780;9.146;2023-04-03T07:14:11;4.00;99.90
7512;DHT22;9999;48.780;9.146;2023-04-03T07:16:39;4.00;99.90
7512;DHT22;9999;48.780;9.146;2023-04-03T07:19:06;4.00;99.90
7512;DHT22;9999;48.780;9.146;2023-04-03T07:21:34;4.00;99.90
7512;DHT22;9999;48.780;9.146;2023-04-03T07:24:01;4.00;99.90
7512;DHT22;9999;48.780;9.146;2023-04-03T07:26:28;4.00;99.90
7512;DHT22;9999;48.780;9.146;2023-04-03T07:28:54;4.00;99.90
7512;DHT22;9999;48.780;9.146;2023-04-03T07:31:21;4.10;99.90
7512;DHT22;9999;48.780;9.146;2023-04-03T07:33:49;4.10;99.90
7512;DHT22;9999;48.780;9.146;2023-04-03T07:36:18;4.10;99.90
7512;DHT22;9999;48.780;9.146;2023-04-03T07:38:45;4.20;99.90
7512;DHT22;9999;48.780;9.146;2023-04-03T07:41:14;4.30;99.90
7512;DHT22;9999;48.780;9.146;2023-04-03T07:43:43;4.40;99.90
7512;DHT22;9999;48.780;9.146;2023-04-03T07:46:11;4.40;99.90
7512;DHT22;9999;48.780;9.146;2023-04-03T07:48:38;4.50;99.90
7512;DHT22;9999;48.780;9.146;2023-04-03T07:51:06;4.60;99.90
7512;DHT22;9999;48.780;9.146;2023-04-03T07:53:33;4.70;99.90
7512;DHT22;9999;48.780;9.146;2023-04-03T07:56:00;4.70;99.90
7512;DHT22;9999;48.780;9.146;2023-04-03T07:58:28;4.70;99.90
7512;DHT22;9999;48.780;9.146;2023-04-03T08:00:55;4.80;99.90
7512;DHT22;9999;48.780;9.146;2023-04-03T08:03:22;4.70;99.90
7512;DHT22;9999;48.780;9.146;2023-04-03T08:05:50;4.80;99.90
7512;DHT22;9999;48.780;9.146;2023-04-03T08:08:22;4.70;99.90
7512;DHT22;9999;48.780;9.146;2023-04-03T08:10:49;4.80;99.90
7512;DHT22;9999;48.780;9.146;2023-04-03T08:13:17;4.90;99.90
7512;DHT22;9999;48.780;9.146;2023-04-03T08:15:43;4.90;99.90
7512;DHT22;9999;48.780;9.146;2023-04-03T08:18:10;4.90;99.90
7512;DHT22;9999;48.780;9.146;2023-04-03T08:20:38;4.90;99.90
7512;DHT22;9999;48.780;9.146;2023-04-03T08:23:06;4.90;99.90
7512;DHT22;9999;48.780;9.146;2023-04-03T08:25:37;4.90;99.90
7512;DHT22;9999;48.780;9.146;2023-04-03T08:28:05;5.00;99.90
7512;DHT22;9999;48.780;9.146;2023-04-03T08:30:32;5.10;99.90
7512;DHT22;9999;48.780;9.146;2023-04-03T08:33:00;5.10;99.90
7512;DHT22;9999;48.780;9.146;2023-04-03T08:35:27;5.10;99.90
7512;DHT22;9999;48.780;9.146;2023-04-03T08:37:54;5.10;99.90
7512;DHT22;9999;48.780;9.146;2023-04-03T08:40:22;5.20;99.90
7512;DHT22;9999;48.780;9.146;2023-04-03T08:42:57;5.20;99.90
7512;DHT22;9999;48.780;9.146;2023-04-03T08:45:38;5.20;99.90
7512;DHT22;9999;48.780;9.146;2023-04-03T08:48:12;5.30;99.90
7512;DHT22;9999;48.780;9.146;2023-04-03T08:50:43;5.20;99.90
7512;DHT22;9999;48.780;9.146;2023-04-03T08:53:14;5.30;99.90
7512;DHT22;9999;48.780;9.146;2023-04-03T08:55:43;5.40;99.90
7512;DHT22;9999;48.780;9.146;2023-04-03T08:58:15;5.40;99.90
7512;DHT22;9999;48.780;9.146;2023-04-03T09:00:46;5.40;99.90
7512;DHT22;9999;48.780;9.146;2023-04-03T09:03:15;5.50;99.90
7512;DHT22;9999;48.780;9.146;2023-04-03T09:05:47;5.50;99.90
7512;DHT22;9999;48.780;9.146;2023-04-03T09:08:22;5.50;99.90
7512;DHT22;9999;48.780;9.146;2023-04-03T09:10:52;5.50;99.90
7512;DHT22;9999;48.780;9.146;2023-04-03T09:13:28;5.40;99.90
7512;DHT22;9999;48.780;9.146;2023-04-03T09:15:57;5.40;99.90
7512;DHT22;9999;48.780;9.146;2023-04-03T09:18:28;5.50;99.90
7512;DHT22;9999;48.780;9.146;2023-04-03T09:21:01;5.60;99.90
7512;DHT22;9999;48.780;9.146;2023-04-03T09:23:33;5.70;99.90
7512;DHT22;9999;48.780;9.146;2023-04-03T09:26:03;5.70;99.90
7512;DHT22;9999;48.780;9.146;2023-04-03T09:28:37;5.70;99.90
7512;DHT22;9999;48.780;9.146;2023-04-03T09:31:17;5.80;99.90
7512;DHT22;9999;48.780;9.146;2023-04-03T09:33:45;5.90;99.90
7512;DHT22;9999;48.780;9.146;2023-04-03T09:36:12;5.80;99.90
7512;DHT22;9999;48.780;9.146;2023-04-03T09:38:39;5.80;99.90
7512;DHT22;9999;48.780;9.146;2023-04-03T09:41:12;5.70;99.90
7512;DHT22;9999;48.780;9.146;2023-04-03T09:43:51;5.60;99.90
7512;DHT22;9999;48.780;9.146;2023-04-03T09:46:26;5.60;99.90
7512;DHT22;9999;48.780;9.146;2023-04-03T09:48:57;5.50;99.90
7512;DHT22;9999;48.780;9.146;2023-04-03T09:51:25;5.40;99.90
7512;DHT22;9999;48.780;9.146;2023-04-03T09:53:53;5.50;99.90
7512;DHT22;9999;48.780;9.146;2023-04-03T09:56:24;5.50;99.90
7512;DHT22;9999;48.780;9.146;2023-04-03T09:59:07;5.50;99.90
7512;DHT22;9999;48.780;9.146;2023-04-03T10:01:37;5.50;99.90
7512;DHT22;9999;48.780;9.146;2023-04-03T10:04:09;5.50;99.90
7512;DHT22;9999;48.780;9.146;2023-04-03T10:06:39;5.50;99.90
7512;DHT22;9999;48.780;9.146;2023-04-03T10:09:17;5.40;99.90
7512;DHT22;9999;48.780;9.146;2023-04-03T10:12:01;5.40;99.90
7512;DHT22;9999;48.780;9.146;2023-04-03T10:14:32;5.40;99.90
7512;DHT22;9999;48.780;9.146;2023-04-03T10:17:05;5.40;99.90
7512;DHT22;9999;48.780;9.146;2023-04-03T10:19:40;5.50;99.90
7512;DHT22;9999;48.780;9.146;2023-04-03T10:22:20;5.50;99.90
7512;DHT22;9999;48.780;9.146;2023-04-03T10:24:55;5.60;99.90
7512;DHT22;9999;48.780;9.146;2023-04-03T10:27:40;5.60;99.90
7512;DHT22;9999;48.780;9.146;2023-04-03T10:30:25;5.70;99.90
7512;DHT22;9999;48.780;9.146;2023-04-03T10:33:08;5.90;99.90
7512;DHT22;9999;48.780;9.146;2023-04-03T10:35:44;6.00;99.90
7512;DHT22;9999;48.780;9.146;2023-04-03T10:38:20;6.10;99.90
7512;DHT22;9999;48.780;9.146;2023-04-03T10:40:57;6.00;99.90
7512;DHT22;9999;48.780;9.146;2023-04-03T10:43:33;6.00;99.90
7512;DHT22;9999;48.780;9.146;2023-04-03T10:46:10;6.00;99.90
7512;DHT22;9999;48.780;9.146;2023-04-03T10:48:51;5.90;99.90
7512;DHT22;9999;48.780;9.146;2023-04-03T10:51:25;5.80;99.90
7512;DHT22;9999;48.780;9.146;2023-04-03T10:53:57;5.70;99.90
7512;DHT22;9999;48.780;9.146;2023-04-03T10:56:31;5.70;99.90
7512;DHT22;9999;48.780;9.146;2023-04-03T10:59:05;5.80;99.90
7512;DHT22;9999;48.780;9.146;2023-04-03T11:01:39;5.90;99.90
7512;DHT22;9999;48.780;9.146;2023-04-03T11:04:07;6.00;99.90
7512;DHT22;9999;48.780;9.146;2023-04-03T11:06:41;5.90;99.90
7512;DHT22;9999;48.780;9.146;2023-04-03T11:09:18;5.90;99.90
7512;DHT22;9999;48.780;9.146;2023-04-03T11:11:47;5.90;99.90
7512;DHT22;9999;48.780;9.146;2023-04-03T11:14:26;5.90;99.90
7512;DHT22;9999;48.780;9.146;2023-04-03T11:17:05;5.90;99.90
7512;DHT22;9999;48.780;9.146;2023-04-03T11:19:41;5.90;99.90
7512;DHT22;9999;48.780;9.146;2023-04-03T11:22:13;6.00;99.90
7512;DHT22;9999;48.780;9.146;2023-04-03T11:24:50;6.00;99.90
7512;DHT22;9999;48.780;9.146;2023-04-03T11:27:22;6.00;99.90
7512;DHT22;9999;48.780;9.146;2023-04-03T11:29:52;6.00;99.90
7512;DHT22;9999;48.780;9.146;2023-04-03T11:35:27;6.00;99.90
7512;DHT22;9999;48.780;9.146;2023-04-03T11:37:55;6.00;99.90
7512;DHT22;9999;48.780;9.146;2023-04-03T11:40:26;5.90;99.90
7512;DHT22;9999;48.780;9.146;2023-04-03T11:43:04;5.90;99.90
7512;DHT22;9999;48.780;9.146;2023-04-03T11:45:37;5.90;99.90
7512;DHT22;9999;48.780;9.146;2023-04-03T11:48:05;5.90;99.90
7512;DHT22;9999;48.780;9.146;2023-04-03T11:50:42;5.90;99.90
7512;DHT22;9999;48.780;9.146;2023-04-03T11:53:31;5.90;99.90
7512;DHT22;9999;48.780;9.146;2023-04-03T11:56:32;6.00;99.90
7512;DHT22;9999;48.780;9.146;2023-04-03T11:59:23;6.10;99.90
7512;DHT22;9999;48.780;9.146;2023-04-03T12:01:51;6.10;99.90
7512;DHT22;9999;48.780;9.146;2023-04-03T12:04:19;6.10;99.90
7512;DHT22;9999;48.780;9.146;2023-04-03T12:10:02;6.10;99.90
7512;DHT22;9999;48.780;9.146;2023-04-03T12:12:41;6.20;99.90
7512;DHT22;9999;48.780;9.146;2023-04-03T12:15:21;6.20;99.90
7512;DHT22;9999;48.780;9.146;2023-04-03T12:17:48;6.20;99.90
7512;DHT22;9999;48.780;9.146;2023-04-03T12:20:52;6.20;99.90
7512;DHT22;9999;48.780;9.146;2023-04-03T12:23:30;6.10;99.90
7512;DHT22;9999;48.780;9.146;2023-04-03T12:26:19;6.00;99.90
7512;DHT22;9999;48.780;9.146;2023-04-03T12:28:48;5.90;99.90
7512;DHT22;9999;48.780;9.146;2023-04-03T12:31:17;6.00;99.90
7512;DHT22;9999;48.780;9.146;2023-04-03T12:34:05;6.00;99.90
7512;DHT22;9999;48.780;9.146;2023-04-03T12:36:45;6.00;99.90
7512;DHT22;9999;48.780;9.146;2023-04-03T12:39:47;6.10;99.90
7512;DHT22;9999;48.780;9.146;2023-04-03T12:42:31;6.10;99.90
7512;DHT22;9999;48.780;9.146;2023-04-03T12:45:02;6.10;99.90
7512;DHT22;9999;48.780;9.146;2023-04-03T12:47:35;6.10;99.90
7512;DHT22;9999;48.780;9.146;2023-04-03T12:50:04;6.20;99.90
7512;DHT22;9999;48.780;9.146;2023-04-03T12:52:35;6.10;99.90
7512;DHT22;9999;48.780;9.146;2023-04-03T12:55:08;6.10;99.90
7512;DHT22;9999;48.780;9.146;2023-04-03T12:57:42;6.10;99.90
7512;DHT22;9999;48.780;9.146;2023-04-03T18:34:30;4.90;99.90
7512;DHT22;9999;48.780;9.146;2023-04-03T18:36:57;4.90;99.90
7512;DHT22;9999;48.780;9.146;2023-04-03T18:39:24;4.90;99.90
7512;DHT22;9999;48.780;9.146;2023-04-03T18:41:51;4.80;99.90
7512;DHT22;9999;48.780;9.146;2023-04-03T18:44:20;4.90;99.90
7512;DHT22;9999;48.780;9.146;2023-04-03T18:46:48;4.90;99.90
7512;DHT22;9999;48.780;9.146;2023-04-03T18:49:15;4.90;99.90
7512;DHT22;9999;48.780;9.146;2023-04-03T18:51:44;4.90;99.90
7512;DHT22;9999;48.780;9.146;2023-04-03T18:54:11;4.90;99.90
7512;DHT22;9999;48.780;9.146;2023-04-03T18:56:38;4.80;99.90
7512;DHT22;9999;48.780;9.146;2023-04-03T18:59:05;4.70;99.90
7512;DHT22;9999;48.780;9.146;2023-04-03T19:01:33;4.60;99.90
7512;DHT22;9999;48.780;9.146;2023-04-03T19:04:02;4.60;99.90
7512;DHT22;9999;48.780;9.146;2023-04-03T19:06:29;4.50;99.90
7512;DHT22;9999;48.780;9.146;2023-04-03T19:08:59;4.50;99.90
7512;DHT22;9999;48.780;9.146;2023-04-03T19:11:26;4.50;99.90
7512;DHT22;9999;48.780;9.146;2023-04-03T19:13:53;4.30;99.90
7512;DHT22;9999;48.780;9.146;2023-04-03T19:16:20;4.30;99.90
7512;DHT22;9999;48.780;9.146;2023-04-03T19:18:47;4.20;99.90
7512;DHT22;9999;48.780;9.146;2023-04-03T19:21:14;4.20;99.90
7512;DHT22;9999;48.780;9.146;2023-04-03T19:23:41;4.20;99.90
7512;DHT22;9999;48.780;9.146;2023-04-03T19:26:12;4.20;99.90
7512;DHT22;9999;48.780;9.146;2023-04-03T19:28:40;4.10;99.90
7512;DHT22;9999;48.780;9.146;2023-04-03T19:31:10;4.00;99.90
7512;DHT22;9999;48.780;9.146;2023-04-03T19:33:37;4.00;99.90
7512;DHT22;9999;48.780;9.146;2023-04-03T19:36:07;4.10;99.90
7512;DHT22;9999;48.780;9.146;2023-04-03T19:38:33;4.00;99.90
7512;DHT22;9999;48.780;9.146;2023-04-03T19:41:02;4.10;99.90
7512;DHT22;9999;48.780;9.146;2023-04-03T19:43:31;4.10;99.90
7512;DHT22;9999;48.780;9.146;2023-04-03T19:45:58;4.10;99.90
7512;DHT22;9999;48.780;9.146;2023-04-03T19:48:25;4.10;99.90
7512;DHT22;9999;48.780;9.146;2023-04-03T19:50:52;4.10;99.90
7512;DHT22;9999;48.780;9.146;2023-04-03T19:53:19;4.10;99.90
7512;DHT22;9999;48.780;9.146;2023-04-03T19:55:47;4.10;99.90
7512;DHT22;9999;48.780;9.146;2023-04-03T19:58:14;4.10;99.90
7512;DHT22;9999;48.780;9.146;2023-04-03T20:00:42;4.10;99.90
7512;DHT22;9999;48.780;9.146;2023-04-03T20:03:09;4.10;99.90
7512;DHT22;9999;48.780;9.146;2023-04-03T20:05:36;4.00;99.90
7512;DHT22;9999;48.780;9.146;2023-04-03T20:08:03;4.00;99.90
7512;DHT22;9999;48.780;9.146;2023-04-03T20:10:30;4.00;99.90
7512;DHT22;9999;48.780;9.146;2023-04-03T20:12:57;3.90;99.90
7512;DHT22;9999;48.780;9.146;2023-04-03T20:15:24;3.80;99.90
7512;DHT22;9999;48.780;9.146;2023-04-03T20:17:54;3.80;99.90
7512;DHT22;9999;48.780;9.146;2023-04-03T20:20:21;3.80;99.90
7512;DHT22;9999;48.780;9.146;2023-04-03T20:22:48;3.70;99.90
7512;DHT22;9999;48.780;9.146;2023-04-03T20:25:17;3.60;99.90
7512;DHT22;9999;48.780;9.146;2023-04-03T20:27:44;3.60;99.90
7512;DHT22;9999;48.780;9.146;2023-04-03T20:30:12;3.50;99.90
7512;DHT22;9999;48.780;9.146;2023-04-03T20:32:39;3.50;99.90
7512;DHT22;9999;48.780;9.146;2023-04-03T20:35:08;3.40;99.90
7512;DHT22;9999;48.780;9.146;2023-04-03T20:37:35;3.40;99.90
7512;DHT22;9999;48.780;9.146;2023-04-03T20:40:04;3.40;99.90
7512;DHT22;9999;48.780;9.146;2023-04-03T20:42:31;3.40;99.90
7512;DHT22;9999;48.780;9.146;2023-04-03T20:44:58;3.30;99.90
7512;DHT22;9999;48.780;9.146;2023-04-03T20:47:24;3.30;99.90
7512;DHT22;9999;48.780;9.146;2023-04-03T20:49:52;3.30;99.90
7512;DHT22;9999;48.780;9.146;2023-04-03T20:52:21;3.20;99.90
7512;DHT22;9999;48.780;9.146;2023-04-03T20:54:48;3.10;99.90
7512;DHT22;9999;48.780;9.146;2023-04-03T20:57:15;3.00;99.90
7512;DHT22;9999;48.780;9.146;2023-04-03T20:59:45;3.10;99.90
7512;DHT22;9999;48.780;9.146;2023-04-03T21:02:12;3.00;99.90
7512;DHT22;9999;48.780;9.146;2023-04-03T21:04:45;2.90;99.90
7512;DHT22;9999;48.780;9.146;2023-04-03T21:19:08;2.80;99.90
7512;DHT22;9999;48.780;9.146;2023-04-03T21:21:35;2.70;99.90
7512;DHT22;9999;48.780;9.146;2023-04-03T21:24:04;2.70;99.90
7512;DHT22;9999;48.780;9.146;2023-04-03T21:26:35;2.70;99.90
7512;DHT22;9999;48.780;9.146;2023-04-03T21:29:03;2.60;99.90
7512;DHT22;9999;48.780;9.146;2023-04-03T21:31:46;2.60;99.90
7512;DHT22;9999;48.780;9.146;2023-04-03T21:34:15;2.50;99.90
7512;DHT22;9999;48.780;9.146;2023-04-03T21:36:42;2.50;99.90
7512;DHT22;9999;48.780;9.146;2023-04-03T21:39:09;2.40;99.90
7512;DHT22;9999;48.780;9.146;2023-04-03T21:41:36;2.50;99.90
7512;DHT22;9999;48.780;9.146;2023-04-03T21:44:06;2.40;99.90
7512;DHT22;9999;48.780;9.146;2023-04-03T21:46:33;2.40;99.90
7512;DHT22;9999;48.780;9.146;2023-04-03T21:49:00;2.40;99.90
7512;DHT22;9999;48.780;9.146;2023-04-03T21:51:28;2.40;99.90
7512;DHT22;9999;48.780;9.146;2023-04-03T21:53:56;2.30;99.90
7512;DHT22;9999;48.780;9.146;2023-04-03T21:56:23;2.30;99.90
7512;DHT22;9999;48.780;9.146;2023-04-03T21:58:51;2.30;99.90
7512;DHT22;9999;48.780;9.146;2023-04-03T22:01:18;2.30;99.90
7512;DHT22;9999;48.780;9.146;2023-04-03T22:03:46;2.20;99.90
7512;DHT22;9999;48.780;9.146;2023-04-03T22:06:14;2.20;99.90
7512;DHT22;9999;48.780;9.146;2023-04-03T22:08:42;2.10;99.90
7512;DHT22;9999;48.780;9.146;2023-04-03T22:11:11;2.10;99.90
7512;DHT22;9999;48.780;9.146;2023-04-03T22:13:39;2.10;99.90
7512;DHT22;9999;48.780;9.146;2023-04-03T22:16:07;2.00;99.90
7512;DHT22;9999;48.780;9.146;2023-04-03T22:18:34;2.00;99.90
7512;DHT22;9999;48.780;9.146;2023-04-03T22:21:01;2.00;99.90
7512;DHT22;9999;48.780;9.146;2023-04-03T22:23:28;2.00;99.90
7512;DHT22;9999;48.780;9.146;2023-04-03T22:25:59;2.00;99.90